createdAt,value
2019-05-03T00:02:28.367Z,101092.03
2019-05-03T00:05:37.585Z,101089.36
2019-05-03T00:08:06.849Z,101090.20
2019-05-03T00:10:35.319Z,101091.88
2019-05-03T00:13:02.286Z,101088.41
2019-05-03T00:16:04.097Z,101089.25
2019-05-03T00:18:32.822Z,101090.52
2019-05-03T00:21:02.041Z,101094.03
2019-05-03T00:23:28.956Z,101093.09
2019-05-03T00:25:55.922Z,101094.36
2019-05-03T00:28:24.136Z,101099.19
2019-05-03T00:30:51.891Z,101103.55
2019-05-03T00:33:22.427Z,101099.60
2019-05-03T00:36:02.756Z,101099.08
2019-05-03T00:38:32.824Z,101093.64
2019-05-03T00:41:01.726Z,101102.25
2019-05-03T00:43:28.704Z,101102.89
2019-05-03T00:45:55.677Z,101097.85
2019-05-03T00:48:22.641Z,101096.22
2019-05-03T00:50:51.650Z,101100.31
2019-05-03T00:53:18.500Z,101089.55
2019-05-03T00:55:45.517Z,101093.64
2019-05-03T00:58:12.519Z,101103.86
2019-05-03T01:00:41.760Z,101101.96
2019-05-03T01:03:08.745Z,101107.87
2019-05-03T01:05:35.758Z,101105.03
2019-05-03T01:08:02.699Z,101105.61
2019-05-03T01:10:29.661Z,101110.73
2019-05-03T01:12:57.970Z,101113.66
2019-05-03T01:15:32.050Z,101117.66
2019-05-03T01:18:01.841Z,101119.55
2019-05-03T01:20:37.845Z,101117.09
2019-05-03T01:23:04.873Z,101118.97
2019-05-03T01:25:37.692Z,101120.76
2019-05-03T01:28:04.660Z,101124.13
2019-05-03T01:30:32.118Z,101124.31
2019-05-03T01:33:36.069Z,101121.41
2019-05-03T01:36:03.607Z,101123.69
2019-05-03T01:38:31.865Z,101121.19
2019-05-03T01:41:17.608Z,101120.66
2019-05-03T01:43:44.602Z,101128.40
2019-05-03T01:46:11.999Z,101126.50
2019-05-03T01:49:01.618Z,101127.92
2019-05-03T01:51:52.609Z,101128.40
2019-05-03T01:54:19.871Z,101132.03
2019-05-03T01:56:56.839Z,101129.00
2019-05-03T01:59:16.025Z,101130.19
2019-05-03T02:02:03.772Z,101130.55
2019-05-03T02:04:35.997Z,101130.75
2019-05-03T02:07:03.058Z,101136.22
2019-05-03T02:09:30.019Z,101139.55
2019-05-03T02:11:57.113Z,101134.55
2019-05-03T02:14:24.224Z,101138.45
2019-05-03T02:16:52.286Z,101141.08
2019-05-03T02:19:19.513Z,101134.47
2019-05-03T02:22:23.307Z,101144.82
2019-05-03T02:24:52.512Z,101148.75
2019-05-03T02:27:19.568Z,101142.48
2019-05-03T02:29:46.792Z,101149.16
2019-05-03T02:32:13.759Z,101147.91
2019-05-03T02:34:43.588Z,101143.70
2019-05-03T02:37:09.636Z,101139.41
2019-05-03T02:39:36.629Z,101142.16
2019-05-03T02:42:11.004Z,101140.37
2019-05-03T02:44:35.605Z,101142.16
2019-05-03T02:47:10.674Z,101141.68
2019-05-03T02:49:45.530Z,101145.06
2019-05-03T02:52:31.244Z,101149.34
2019-05-03T02:54:58.249Z,101150.17
2019-05-03T02:57:25.855Z,101152.31
2019-05-03T02:59:54.923Z,101147.50
2019-05-03T03:02:22.404Z,101152.73
2019-05-03T03:04:49.955Z,101156.66
2019-05-03T03:07:17.538Z,101155.83
2019-05-03T03:09:45.813Z,101153.62
2019-05-03T03:12:15.280Z,101161.55
2019-05-03T03:14:45.515Z,101162.79
2019-05-03T03:17:15.002Z,101166.91
2019-05-03T03:19:46.175Z,101154.77
2019-05-03T03:22:16.557Z,101162.33
2019-05-03T03:24:47.818Z,101164.84
2019-05-03T03:27:19.121Z,101167.17
2019-05-03T03:29:51.140Z,101171.70
2019-05-03T03:32:30.695Z,101168.78
2019-05-03T03:35:11.598Z,101168.94
2019-05-03T03:37:37.004Z,101168.17
2019-05-03T03:40:06.191Z,101167.69
2019-05-03T03:42:35.993Z,101167.22
2019-05-03T03:45:06.128Z,101167.63
2019-05-03T03:47:37.160Z,101170.92
2019-05-03T03:50:05.951Z,101174.26
2019-05-03T03:52:35.877Z,101175.80
2019-05-03T03:55:06.171Z,101186.92
2019-05-03T03:57:35.740Z,101192.51
2019-05-03T04:00:07.993Z,101191.08
2019-05-03T04:02:37.812Z,101197.62
2019-05-03T04:05:05.972Z,101206.66
2019-05-03T04:07:36.164Z,101206.30
2019-05-03T04:10:05.730Z,101212.72
2019-05-03T04:12:35.181Z,101222.72
2019-05-03T04:15:22.058Z,101220.16
2019-05-03T04:17:59.485Z,101227.95
2019-05-03T04:20:31.232Z,101227.89
2019-05-03T04:23:39.646Z,101227.35
2019-05-03T04:26:07.223Z,101231.91
2019-05-03T04:28:36.170Z,101232.00
2019-05-03T04:31:05.997Z,101237.33
2019-05-03T04:33:32.121Z,101236.23
2019-05-03T04:35:59.096Z,101237.69
2019-05-03T04:38:45.436Z,101241.96
2019-05-03T04:41:58.944Z,101239.56
2019-05-03T04:44:26.218Z,101243.22
2019-05-03T04:46:55.953Z,101252.09
2019-05-03T04:49:22.200Z,101246.87
2019-05-03T04:51:49.218Z,101249.00
2019-05-03T04:54:35.821Z,101255.67
2019-05-03T04:57:02.856Z,101260.98
2019-05-03T04:59:35.686Z,101261.88
2019-05-03T05:02:01.977Z,101261.11
2019-05-03T05:04:28.991Z,101269.44
2019-05-03T05:06:55.918Z,101276.73
2019-05-03T05:09:25.783Z,101273.63
2019-05-03T05:11:51.954Z,101277.54
2019-05-03T05:14:18.920Z,101281.59
2019-05-03T05:16:46.731Z,101281.63
2019-05-03T05:19:17.109Z,101284.64
2019-05-03T05:21:48.171Z,101282.28
2019-05-03T05:24:15.278Z,101287.42
2019-05-03T05:26:55.054Z,101286.81
2019-05-03T05:29:25.374Z,101289.28
2019-05-03T05:31:52.415Z,101292.98
2019-05-03T05:34:19.372Z,101288.83
2019-05-03T05:36:51.056Z,101292.53
2019-05-03T05:39:18.868Z,101295.33
2019-05-03T05:41:45.891Z,101296.06
2019-05-03T05:44:19.179Z,101300.59
2019-05-03T05:47:18.036Z,101296.13
2019-05-03T05:49:49.799Z,101298.27
2019-05-03T05:52:16.780Z,101302.14
2019-05-03T05:54:51.116Z,101302.80
2019-05-03T05:57:38.471Z,101299.10
2019-05-03T06:00:10.836Z,101307.27
2019-05-03T06:02:37.791Z,101302.80
2019-05-03T06:05:05.120Z,101309.23
2019-05-03T06:07:50.388Z,101311.91
2019-05-03T06:10:37.708Z,101310.48
2019-05-03T06:13:34.343Z,101313.39
2019-05-03T06:16:10.750Z,101314.69
2019-05-03T06:19:00.240Z,101321.31
2019-05-03T06:21:41.801Z,101319.76
2019-05-03T06:24:14.755Z,101315.56
2019-05-03T06:26:55.507Z,101319.39
2019-05-03T06:29:22.456Z,101320.40
2019-05-03T06:32:25.397Z,101317.16
2019-05-03T06:34:54.534Z,101314.95
2019-05-03T06:37:25.058Z,101316.38
2019-05-03T06:39:53.955Z,101318.75
2019-05-03T06:42:22.847Z,101320.34
2019-05-03T06:44:49.933Z,101315.41
2019-05-03T06:47:21.651Z,101311.36
2019-05-03T06:49:48.703Z,101318.83
2019-05-03T06:52:19.861Z,101318.20
2019-05-03T06:54:45.040Z,101306.05
2019-05-03T06:57:14.799Z,101303.11
2019-05-03T06:59:55.019Z,101302.48
2019-05-03T07:02:47.631Z,101309.45
2019-05-03T07:05:37.803Z,101308.14
2019-05-03T07:08:25.333Z,101311.94
2019-05-03T07:10:55.553Z,101317.19
2019-05-03T07:13:22.558Z,101317.03
2019-05-03T07:15:49.540Z,101314.98
2019-05-03T07:18:16.508Z,101319.98
2019-05-03T07:20:56.915Z,101317.36
2019-05-03T07:23:24.489Z,101315.25
2019-05-03T07:25:51.637Z,101318.71
2019-05-03T07:28:18.611Z,101313.70
2019-05-03T07:30:45.611Z,101315.45
2019-05-03T07:33:19.494Z,101313.76
2019-05-03T07:35:46.471Z,101315.55
2019-05-03T07:38:15.446Z,101310.11
2019-05-03T07:40:44.478Z,101313.27
2019-05-03T07:43:11.313Z,101320.04
2019-05-03T07:45:38.292Z,101321.87
2019-05-03T07:48:47.613Z,101319.25
2019-05-03T07:51:14.729Z,101315.30
2019-05-03T07:53:41.727Z,101313.98
2019-05-03T07:56:11.712Z,101315.77
2019-05-03T07:58:40.387Z,101315.48
2019-05-03T08:01:12.476Z,101307.03
2019-05-03T08:03:39.502Z,101314.73
2019-05-03T08:06:06.477Z,101309.94
2019-05-03T08:08:35.254Z,101321.59
2019-05-03T08:11:02.443Z,101318.95
2019-05-03T08:13:30.862Z,101321.92
2019-05-03T08:15:57.815Z,101315.00
2019-05-03T08:18:25.649Z,101321.56
2019-05-03T08:20:53.054Z,101316.95
2019-05-03T08:23:27.376Z,101322.39
2019-05-03T08:25:50.886Z,101321.72
2019-05-03T08:28:17.861Z,101320.53
2019-05-03T08:31:04.805Z,101320.16
2019-05-03T08:34:08.288Z,101317.22
2019-05-03T08:36:54.813Z,101317.60
2019-05-03T08:39:25.006Z,101320.06
2019-05-03T08:41:59.838Z,101324.42
2019-05-03T08:45:08.253Z,101323.80
2019-05-03T08:47:35.276Z,101324.11
2019-05-03T08:50:02.413Z,101313.88
2019-05-03T08:52:29.360Z,101312.70
2019-05-03T08:54:56.362Z,101317.51
2019-05-03T08:57:25.357Z,101309.91
2019-05-03T08:59:52.248Z,101307.64
2019-05-03T09:02:19.367Z,101312.58
2019-05-03T09:04:46.474Z,101305.50
2019-05-03T09:07:14.840Z,101306.43
2019-05-03T09:10:01.667Z,101301.66
2019-05-03T09:12:48.243Z,101297.31
2019-05-03T09:15:15.282Z,101283.02
2019-05-03T09:17:42.214Z,101295.11
2019-05-03T09:20:09.184Z,101299.14
2019-05-03T09:22:36.461Z,101294.41
2019-05-03T09:25:07.843Z,101293.59
2019-05-03T09:27:34.940Z,101286.13
2019-05-03T09:30:02.315Z,101283.81
2019-05-03T09:32:29.289Z,101277.25
2019-05-03T09:34:56.260Z,101280.38
2019-05-03T09:37:24.973Z,101282.23
2019-05-03T09:39:52.148Z,101289.62
2019-05-03T09:42:19.139Z,101276.58
2019-05-03T09:44:46.099Z,101278.10
2019-05-03T09:47:22.267Z,101281.03
2019-05-03T09:49:49.460Z,101271.80
2019-05-03T09:52:16.599Z,101273.45
2019-05-03T09:54:48.167Z,101274.67
2019-05-03T09:57:15.327Z,101266.12
2019-05-03T09:59:54.245Z,101270.58
2019-05-03T10:02:11.273Z,101271.98
2019-05-03T10:04:38.686Z,101271.91
2019-05-03T10:07:05.720Z,101274.37
2019-05-03T10:09:32.716Z,101278.04
2019-05-03T10:12:05.358Z,101272.44
2019-05-03T10:14:32.155Z,101276.30
2019-05-03T10:17:19.835Z,101276.30
2019-05-03T10:19:48.937Z,101268.91
2019-05-03T10:22:20.068Z,101271.73
2019-05-03T10:24:47.216Z,101272.34
2019-05-03T10:27:15.286Z,101280.71
2019-05-03T10:29:42.285Z,101276.16
2019-05-03T10:32:17.239Z,101281.64
2019-05-03T10:34:54.532Z,101281.06
2019-05-03T10:37:31.998Z,101276.08
2019-05-03T10:40:00.807Z,101273.95
2019-05-03T10:42:27.890Z,101266.62
2019-05-03T10:44:55.515Z,101275.84
2019-05-03T10:47:22.641Z,101271.17
2019-05-03T10:49:49.616Z,101258.98
2019-05-03T10:52:17.972Z,101267.98
2019-05-03T10:54:45.946Z,101266.72
2019-05-03T10:57:16.389Z,101269.14
2019-05-03T10:59:46.383Z,101272.25
2019-05-03T11:02:37.518Z,101270.89
2019-05-03T11:05:05.289Z,101271.09
2019-05-03T11:07:34.457Z,101261.92
2019-05-03T11:10:01.377Z,101243.47
2019-05-03T11:12:28.317Z,101256.09
2019-05-03T11:14:55.276Z,101250.53
2019-05-03T11:17:22.289Z,101256.67
2019-05-03T11:19:49.287Z,101259.11
2019-05-03T11:22:16.224Z,101250.48
2019-05-03T11:24:45.297Z,101260.94
2019-05-03T11:27:19.745Z,101255.61
2019-05-03T11:29:46.736Z,101249.66
2019-05-03T11:32:25.557Z,101247.48
2019-05-03T11:35:06.307Z,101250.79
2019-05-03T11:37:46.791Z,101240.22
2019-05-03T11:40:15.690Z,101235.14
2019-05-03T11:42:44.758Z,101237.78
2019-05-03T11:45:11.954Z,101231.50
2019-05-03T11:47:39.030Z,101235.80
2019-05-03T11:50:06.330Z,101235.41
2019-05-03T11:52:35.532Z,101235.59
2019-05-03T11:55:02.394Z,101232.50
2019-05-03T11:57:31.874Z,101218.91
2019-05-03T11:59:58.818Z,101213.63
2019-05-03T12:02:55.448Z,101204.42
2019-05-03T12:05:24.622Z,101204.30
2019-05-03T12:07:51.623Z,101215.97
2019-05-03T12:10:32.449Z,101215.48
2019-05-03T12:12:51.786Z,101206.55
2019-05-03T12:15:19.427Z,101207.81
2019-05-03T12:17:54.499Z,101217.22
2019-05-03T12:20:20.353Z,101208.00
2019-05-03T12:22:48.515Z,101209.77
2019-05-03T12:25:16.803Z,101209.02
2019-05-03T12:27:44.628Z,101201.23
2019-05-03T12:30:15.343Z,101202.65
2019-05-03T12:32:42.385Z,101202.66
2019-05-03T12:35:09.672Z,101208.64
2019-05-03T12:37:55.700Z,101201.93
2019-05-03T12:40:22.783Z,101200.66
2019-05-03T12:42:49.899Z,101202.77
2019-05-03T12:45:17.029Z,101204.22
2019-05-03T12:48:09.723Z,101206.47
2019-05-03T12:50:37.169Z,101201.66
2019-05-03T12:53:04.959Z,101206.27
2019-05-03T12:55:32.081Z,101198.90
2019-05-03T12:57:59.311Z,101197.95
2019-05-03T13:01:01.288Z,101199.58
2019-05-03T13:03:33.378Z,101200.02
2019-05-03T13:06:00.320Z,101199.11
2019-05-03T13:08:36.379Z,101196.66
2019-05-03T13:11:05.241Z,101196.34
2019-05-03T13:13:33.043Z,101202.09
2019-05-03T13:16:00.038Z,101191.83
2019-05-03T13:18:27.011Z,101189.59
2019-05-03T13:20:55.799Z,101184.30
2019-05-03T13:23:25.157Z,101183.80
2019-05-03T13:25:51.873Z,101179.01
2019-05-03T13:28:18.991Z,101176.78
2019-05-03T13:30:45.992Z,101183.55
2019-05-03T13:33:15.169Z,101178.63
2019-05-03T13:35:44.442Z,101178.55
2019-05-03T13:38:11.275Z,101180.98
2019-05-03T13:40:38.239Z,101175.83
2019-05-03T13:43:06.596Z,101176.53
2019-05-03T13:45:35.530Z,101182.44
2019-05-03T13:48:04.846Z,101174.48
2019-05-03T13:50:31.634Z,101175.22
2019-05-03T13:52:58.631Z,101172.73
2019-05-03T13:55:25.632Z,101172.28
2019-05-03T13:57:54.703Z,101180.80
2019-05-03T14:00:24.680Z,101178.10
2019-05-03T14:02:51.886Z,101186.30
2019-05-03T14:05:18.856Z,101179.06
2019-05-03T14:07:45.853Z,101176.14
2019-05-03T14:10:13.159Z,101176.16
2019-05-03T14:12:40.146Z,101167.14
2019-05-03T14:15:07.394Z,101168.52
2019-05-03T14:17:34.421Z,101170.36
2019-05-03T14:20:09.578Z,101168.12
2019-05-03T14:22:38.730Z,101173.06
2019-05-03T14:25:05.866Z,101169.56
2019-05-03T14:27:34.723Z,101170.16
2019-05-03T14:30:01.916Z,101167.49
2019-05-03T14:32:29.146Z,101161.38
2019-05-03T14:35:01.537Z,101161.38
2019-05-03T14:37:28.525Z,101168.67
2019-05-03T14:39:55.516Z,101160.88
2019-05-03T14:42:24.630Z,101168.07
2019-05-03T14:44:51.522Z,101173.05
2019-05-03T14:47:18.466Z,101169.29
2019-05-03T14:49:45.471Z,101172.23
2019-05-03T14:52:14.606Z,101170.15
2019-05-03T14:54:45.014Z,101171.24
2019-05-03T14:57:19.383Z,101166.98
2019-05-03T15:00:11.502Z,101166.65
2019-05-03T15:03:05.554Z,101163.45
2019-05-03T15:05:41.850Z,101162.77
2019-05-03T15:08:08.848Z,101159.59
2019-05-03T15:10:35.796Z,101161.41
2019-05-03T15:13:05.055Z,101170.38
2019-05-03T15:15:31.797Z,101165.46
2019-05-03T15:17:58.775Z,101171.66
2019-05-03T15:20:25.793Z,101166.66
2019-05-03T15:22:54.720Z,101166.75
2019-05-03T15:25:21.719Z,101168.92
2019-05-03T15:27:48.725Z,101161.40
2019-05-03T15:30:16.090Z,101160.87
2019-05-03T15:32:56.587Z,101175.84
2019-05-03T15:35:15.177Z,101169.86
2019-05-03T15:37:42.404Z,101169.67
2019-05-03T15:40:11.417Z,101162.89
2019-05-03T15:43:02.705Z,101168.42
2019-05-03T15:45:47.744Z,101164.99
2019-05-03T15:48:24.552Z,101164.88
2019-05-03T15:50:51.794Z,101159.72
2019-05-03T15:53:18.766Z,101163.76
2019-05-03T15:55:45.773Z,101170.19
2019-05-03T15:58:12.749Z,101167.05
2019-05-03T16:00:39.730Z,101163.52
2019-05-03T16:03:08.929Z,101148.34
2019-05-03T16:05:35.646Z,101148.67
2019-05-03T16:08:04.552Z,101147.94
2019-05-03T16:10:49.926Z,101141.74
2019-05-03T16:13:16.898Z,101150.93
2019-05-03T16:16:24.865Z,101132.36
2019-05-03T16:18:51.922Z,101134.63
2019-05-03T16:21:19.192Z,101125.88
2019-05-03T16:23:46.724Z,101130.47
2019-05-03T16:26:14.312Z,101119.53
2019-05-03T16:28:46.875Z,101129.80
2019-05-03T16:31:16.793Z,101134.16
2019-05-03T16:34:20.835Z,101138.21
2019-05-03T16:36:48.151Z,101129.97
2019-05-03T16:39:15.445Z,101123.31
2019-05-03T16:41:44.637Z,101128.27
2019-05-03T16:44:11.604Z,101124.98
2019-05-03T16:46:38.550Z,101127.08
2019-05-03T16:49:06.504Z,101131.26
2019-05-03T16:51:34.913Z,101125.33
2019-05-03T16:54:04.055Z,101135.70
2019-05-03T16:56:31.256Z,101132.45
2019-05-03T16:58:58.262Z,101131.13
2019-05-03T17:01:25.294Z,101122.45
2019-05-03T17:03:57.795Z,101125.50
2019-05-03T17:06:35.011Z,101128.73
2019-05-03T17:09:24.876Z,101121.65
2019-05-03T17:12:10.245Z,101118.39
2019-05-03T17:14:37.277Z,101118.77
2019-05-03T17:17:07.247Z,101122.63
2019-05-03T17:19:35.110Z,101119.95
2019-05-03T17:22:02.324Z,101128.53
2019-05-03T17:24:29.308Z,101128.40
2019-05-03T17:26:56.393Z,101124.66
2019-05-03T17:29:24.642Z,101118.81
2019-05-03T17:31:51.803Z,101124.36
2019-05-03T17:34:18.822Z,101118.26
2019-05-03T17:36:45.833Z,101120.12
2019-05-03T17:39:15.124Z,101117.88
2019-05-03T17:42:05.274Z,101115.37
2019-05-03T17:45:28.600Z,101118.77
2019-05-03T17:47:55.586Z,101113.29
2019-05-03T17:50:22.557Z,101107.47
2019-05-03T17:53:09.159Z,101114.30
2019-05-03T17:55:48.564Z,101112.81
2019-05-03T17:58:24.199Z,101110.86
2019-05-03T18:01:10.960Z,101110.13
2019-05-03T18:03:40.516Z,101114.37
2019-05-03T18:06:21.661Z,101109.39
2019-05-03T18:09:09.239Z,101109.30
2019-05-03T18:11:40.631Z,101105.88
2019-05-03T18:14:07.596Z,101104.94
2019-05-03T18:16:35.934Z,101108.50
2019-05-03T18:19:02.961Z,101105.69
2019-05-03T18:21:29.980Z,101099.92
2019-05-03T18:23:57.015Z,101098.05
2019-05-03T18:27:06.374Z,101093.16
2019-05-03T18:29:34.604Z,101096.68
2019-05-03T18:32:01.752Z,101098.42
2019-05-03T18:34:28.725Z,101095.84
2019-05-03T18:36:55.767Z,101099.27
2019-05-03T18:39:22.785Z,101094.34
2019-05-03T18:41:54.399Z,101096.88
2019-05-03T18:44:35.707Z,101099.03
2019-05-03T18:47:18.650Z,101104.05
2019-05-03T18:49:45.706Z,101101.28
2019-05-03T18:52:14.795Z,101101.75
2019-05-03T18:54:41.742Z,101100.81
2019-05-03T18:57:08.727Z,101095.78
2019-05-03T18:59:35.680Z,101101.46
2019-05-03T19:02:02.680Z,101097.47
2019-05-03T19:04:55.214Z,101109.25
2019-05-03T19:07:40.540Z,101097.80
2019-05-03T19:10:35.389Z,101103.42
2019-05-03T19:13:08.950Z,101102.34
2019-05-03T19:15:35.891Z,101108.80
2019-05-03T19:18:25.582Z,101101.67
2019-05-03T19:20:52.640Z,101103.77
2019-05-03T19:23:19.694Z,101106.35
2019-05-03T19:25:49.590Z,101108.14
2019-05-03T19:28:16.765Z,101106.30
2019-05-03T19:30:45.641Z,101108.36
2019-05-03T19:33:12.740Z,101110.14
2019-05-03T19:35:39.741Z,101113.45
2019-05-03T19:38:07.492Z,101112.05
2019-05-03T19:40:35.186Z,101112.83
2019-05-03T19:43:03.308Z,101107.48
2019-05-03T19:45:31.024Z,101113.10
2019-05-03T19:47:58.163Z,101113.10
2019-05-03T19:50:27.277Z,101099.08
2019-05-03T19:53:22.563Z,101102.13
2019-05-03T19:55:50.687Z,101106.86
2019-05-03T19:58:26.716Z,101099.31
2019-05-03T20:01:14.773Z,101094.06
2019-05-03T20:03:48.673Z,101085.30
2019-05-03T20:06:28.141Z,101083.78
2019-05-03T20:09:05.120Z,101086.77
2019-05-03T20:11:32.146Z,101087.04
2019-05-03T20:13:59.210Z,101093.55
2019-05-03T20:16:26.186Z,101090.09
2019-05-03T20:18:55.409Z,101090.98
2019-05-03T20:21:22.080Z,101089.61
2019-05-03T20:23:49.034Z,101082.16
2019-05-03T20:26:16.643Z,101087.41
2019-05-03T20:28:44.933Z,101081.69
2019-05-03T20:31:12.133Z,101077.28
2019-05-03T20:33:39.157Z,101069.67
2019-05-03T20:36:06.111Z,101071.83
2019-05-03T20:38:33.078Z,101069.25
2019-05-03T20:41:00.077Z,101064.80
2019-05-03T20:43:46.236Z,101065.16
2019-05-03T20:46:17.126Z,101067.73
2019-05-03T20:48:46.591Z,101065.06
2019-05-03T20:51:14.911Z,101070.56
2019-05-03T20:53:42.143Z,101068.00
2019-05-03T20:56:09.105Z,101067.84
2019-05-03T20:58:37.060Z,101069.09
2019-05-03T21:01:05.038Z,101062.02
2019-05-03T21:03:32.171Z,101065.89
2019-05-03T21:05:59.119Z,101066.31
2019-05-03T21:08:26.149Z,101054.41
2019-05-03T21:10:55.053Z,101059.12
2019-05-03T21:13:22.274Z,101059.55
2019-05-03T21:16:11.902Z,101062.53
2019-05-03T21:18:45.762Z,101055.45
2019-05-03T21:21:17.982Z,101050.52
2019-05-03T21:23:48.792Z,101050.77
2019-05-03T21:26:16.681Z,101059.38
2019-05-03T21:28:44.936Z,101059.63
2019-05-03T21:31:15.642Z,101062.94
2019-05-03T21:33:44.448Z,101063.55
2019-05-03T21:36:11.617Z,101053.69
2019-05-03T21:38:41.001Z,101052.62
2019-05-03T21:41:08.468Z,101056.39
2019-05-03T21:43:35.505Z,101058.36
2019-05-03T21:46:08.952Z,101048.68
2019-05-03T21:48:49.505Z,101048.87
2019-05-03T21:51:16.664Z,101050.75
2019-05-03T21:53:45.059Z,101048.25
2019-05-03T21:56:15.826Z,101052.89
2019-05-03T21:58:44.682Z,101054.32
2019-05-03T22:01:12.970Z,101061.10
2019-05-03T22:03:40.792Z,101061.94
2019-05-03T22:06:07.797Z,101059.20
2019-05-03T22:08:35.145Z,101057.17
2019-05-03T22:11:02.341Z,101054.02
2019-05-03T22:13:29.299Z,101051.34
2019-05-03T22:16:04.794Z,101044.91
2019-05-03T22:18:32.059Z,101040.86
2019-05-03T22:21:30.908Z,101041.16
2019-05-03T22:24:16.269Z,101040.14
2019-05-03T22:26:55.108Z,101039.12
2019-05-03T22:29:28.232Z,101035.20
2019-05-03T22:31:55.346Z,101031.56
2019-05-03T22:34:22.304Z,101031.50
2019-05-03T22:36:49.333Z,101027.87
2019-05-03T22:39:16.297Z,101024.78
2019-05-03T22:41:43.258Z,101016.22
2019-05-03T22:44:10.426Z,101021.93
2019-05-03T22:46:37.389Z,101011.70
2019-05-03T22:49:04.890Z,101014.48
2019-05-03T22:51:32.105Z,101013.88
2019-05-03T22:53:59.120Z,101013.81
2019-05-03T22:56:26.191Z,101016.91
2019-05-03T22:58:54.807Z,101013.69
2019-05-03T23:01:21.904Z,101016.66
2019-05-03T23:03:48.950Z,101013.31
2019-05-03T23:06:22.007Z,101005.34
2019-05-03T23:08:45.045Z,101005.56
2019-05-03T23:11:12.029Z,101010.80
2019-05-03T23:13:39.067Z,101011.50
2019-05-03T23:16:06.044Z,101012.80
2019-05-03T23:18:34.994Z,101016.59
2019-05-03T23:21:08.545Z,101011.23
2019-05-03T23:23:47.359Z,101013.12
2019-05-03T23:26:14.870Z,101006.22
2019-05-03T23:28:41.989Z,101012.02
2019-05-03T23:31:08.962Z,101005.63
2019-05-03T23:33:36.077Z,101005.50
2019-05-03T23:36:04.601Z,101005.02
2019-05-03T23:38:31.781Z,100998.42
2019-05-03T23:40:58.916Z,100999.87
2019-05-03T23:43:25.990Z,101001.05
2019-05-03T23:45:54.569Z,101004.01
2019-05-03T23:48:21.678Z,101005.11
2019-05-03T23:50:49.790Z,101008.62
2019-05-03T23:53:16.772Z,100999.55
2019-05-03T23:56:04.515Z,100999.48
2019-05-03T23:58:31.662Z,101004.58
